sensor_id;sensor_type;location;lat;lon;timestamp;pressure;altitude;pressure_sealevel;temperature;humidity
69796;BME280;57073;45.650;9.612;2023-11-21T00:02:12;98674.59;;;9.63;57.57
69796;BME280;57073;45.650;9.612;2023-11-21T00:07:12;98676.25;;;9.64;57.60
69796;BME280;57073;45.650;9.612;2023-11-21T00:12:12;98671.78;;;9.53;57.27
69796;BME280;57073;45.650;9.612;2023-11-21T00:17:14;98679.50;;;9.66;57.48
69796;BME280;57073;45.650;9.612;2023-11-21T00:22:14;98681.56;;;9.59;56.62
69796;BME280;57073;45.650;9.612;2023-11-21T00:27:16;98669.69;;;9.60;56.59
69796;BME280;57073;45.650;9.612;2023-11-21T00:32:16;98673.16;;;9.55;57.26
69796;BME280;57073;45.650;9.612;2023-11-21T00:37:16;98671.34;;;9.61;56.62
69796;BME280;57073;45.650;9.612;2023-11-21T00:42:17;98670.13;;;9.52;55.96
69796;BME280;57073;45.650;9.612;2023-11-21T00:47:17;98662.28;;;9.50;55.34
69796;BME280;57073;45.650;9.612;2023-11-21T00:52:17;98651.44;;;9.45;55.59
69796;BME280;57073;45.650;9.612;2023-11-21T00:57:18;98646.91;;;9.45;55.34
69796;BME280;57073;45.650;9.612;2023-11-21T01:02:18;98652.25;;;9.12;57.95
69796;BME280;57073;45.650;9.612;2023-11-21T01:07:19;98651.06;;;9.53;56.21
69796;BME280;57073;45.650;9.612;2023-11-21T01:12:22;98662.38;;;9.55;57.10
69796;BME280;57073;45.650;9.612;2023-11-21T01:17:25;98658.31;;;9.53;57.69
69796;BME280;57073;45.650;9.612;2023-11-21T01:22:25;98648.34;;;9.53;57.17
69796;BME280;57073;45.650;9.612;2023-11-21T01:27:26;98646.38;;;9.49;56.66
69796;BME280;57073;45.650;9.612;2023-11-21T01:32:26;98646.38;;;9.49;57.05
69796;BME280;57073;45.650;9.612;2023-11-21T01:37:27;98633.94;;;9.42;57.91
69796;BME280;57073;45.650;9.612;2023-11-21T01:42:28;98617.03;;;9.30;58.60
69796;BME280;57073;45.650;9.612;2023-11-21T01:47:29;98606.44;;;9.40;57.31
69796;BME280;57073;45.650;9.612;2023-11-21T01:52:30;98606.53;;;9.45;58.14
69796;BME280;57073;45.650;9.612;2023-11-21T01:57:31;98604.50;;;9.53;58.10
69796;BME280;57073;45.650;9.612;2023-11-21T02:02:31;98606.78;;;9.44;58.09
69796;BME280;57073;45.650;9.612;2023-11-21T02:07:31;98606.25;;;9.47;57.82
69796;BME280;57073;45.650;9.612;2023-11-21T02:12:32;98595.00;;;9.50;58.32
69796;BME280;57073;45.650;9.612;2023-11-21T02:17:32;98587.34;;;9.59;58.05
69796;BME280;57073;45.650;9.612;2023-11-21T02:22:37;98580.41;;;9.63;57.34
69796;BME280;57073;45.650;9.612;2023-11-21T02:27:40;98588.34;;;9.53;58.21
69796;BME280;57073;45.650;9.612;2023-11-21T02:32:41;98582.88;;;9.48;58.74
69796;BME280;57073;45.650;9.612;2023-11-21T02:37:47;98563.84;;;9.54;59.08
69796;BME280;57073;45.650;9.612;2023-11-21T02:42:47;98555.13;;;9.64;58.67
69796;BME280;57073;45.650;9.612;2023-11-21T02:47:48;98556.34;;;9.56;57.97
69796;BME280;57073;45.650;9.612;2023-11-21T02:52:53;98551.28;;;9.60;57.92
69796;BME280;57073;45.650;9.612;2023-11-21T02:57:54;98548.94;;;9.46;58.61
69796;BME280;57073;45.650;9.612;2023-11-21T03:02:56;98548.69;;;9.48;58.43
69796;BME280;57073;45.650;9.612;2023-11-21T03:07:57;98549.50;;;9.49;59.16
69796;BME280;57073;45.650;9.612;2023-11-21T03:12:57;98545.00;;;9.54;59.01
69796;BME280;57073;45.650;9.612;2023-11-21T03:17:58;98555.28;;;9.57;59.92
69796;BME280;57073;45.650;9.612;2023-11-21T03:22:58;98565.16;;;9.52;61.22
69796;BME280;57073;45.650;9.612;2023-11-21T03:27:59;98557.59;;;9.49;61.87
69796;BME280;57073;45.650;9.612;2023-11-21T03:33:00;98555.44;;;9.51;61.03
69796;BME280;57073;45.650;9.612;2023-11-21T03:38:00;98557.59;;;9.49;61.53
69796;BME280;57073;45.650;9.612;2023-11-21T03:43:01;98563.03;;;9.54;61.03
69796;BME280;57073;45.650;9.612;2023-11-21T03:48:01;98565.16;;;9.52;61.87
69796;BME280;57073;45.650;9.612;2023-11-21T03:53:02;98557.16;;;9.57;61.04
69796;BME280;57073;45.650;9.612;2023-11-21T03:58:02;98558.66;;;9.48;61.62
69796;BME280;57073;45.650;9.612;2023-11-21T04:03:03;98557.59;;;9.49;60.93
69796;BME280;57073;45.650;9.612;2023-11-21T04:08:03;98546.09;;;9.36;62.39
69796;BME280;57073;45.650;9.612;2023-11-21T04:13:04;98553.28;;;9.31;63.04
69796;BME280;57073;45.650;9.612;2023-11-21T04:18:05;98547.41;;;9.34;62.47
69796;BME280;57073;45.650;9.612;2023-11-21T04:23:05;98550.50;;;9.42;61.71
69796;BME280;57073;45.650;9.612;2023-11-21T04:28:06;98533.41;;;9.32;62.54
69796;BME280;57073;45.650;9.612;2023-11-21T04:33:06;98543.84;;;9.28;62.16
69796;BME280;57073;45.650;9.612;2023-11-21T04:38:07;98534.28;;;9.37;62.72
69796;BME280;57073;45.650;9.612;2023-11-21T04:43:08;98534.53;;;9.36;62.24
69796;BME280;57073;45.650;9.612;2023-11-21T04:48:08;98537.31;;;9.41;61.71
69796;BME280;57073;45.650;9.612;2023-11-21T04:53:09;98529.94;;;9.36;61.37
69796;BME280;57073;45.650;9.612;2023-11-21T04:58:09;98537.47;;;9.34;61.42
69796;BME280;57073;45.650;9.612;2023-11-21T05:03:11;98535.84;;;9.33;61.96
69796;BME280;57073;45.650;9.612;2023-11-21T05:08:12;98531.44;;;9.27;62.48
69796;BME280;57073;45.650;9.612;2023-11-21T05:13:12;98538.94;;;9.25;62.36
69796;BME280;57073;45.650;9.612;2023-11-21T05:18:12;98544.84;;;9.22;61.93
69796;BME280;57073;45.650;9.612;2023-11-21T05:23:14;98549.25;;;9.11;62.18
69796;BME280;57073;45.650;9.612;2023-11-21T05:28:14;98536.03;;;9.10;61.75
69796;BME280;57073;45.650;9.612;2023-11-21T05:33:15;98541.81;;;9.01;62.51
69796;BME280;57073;45.650;9.612;2023-11-21T05:38:15;98543.53;;;8.91;62.48
69796;BME280;57073;45.650;9.612;2023-11-21T05:43:15;98532.41;;;8.87;62.68
69796;BME280;57073;45.650;9.612;2023-11-21T05:48:16;98533.41;;;8.81;62.41
69796;BME280;57073;45.650;9.612;2023-11-21T05:53:16;98537.78;;;8.87;62.12
69796;BME280;57073;45.650;9.612;2023-11-21T05:58:16;98535.19;;;8.75;62.27
69796;BME280;57073;45.650;9.612;2023-11-21T06:03:17;98548.31;;;8.72;62.46
69796;BME280;57073;45.650;9.612;2023-11-21T06:08:17;98534.19;;;8.64;62.15
69796;BME280;57073;45.650;9.612;2023-11-21T06:13:18;98533.47;;;8.69;62.45
69796;BME280;57073;45.650;9.612;2023-11-21T06:18:24;98537.94;;;8.63;62.72
69796;BME280;57073;45.650;9.612;2023-11-21T06:23:24;98526.06;;;8.59;62.75
69796;BME280;57073;45.650;9.612;2023-11-21T06:28:25;98539.47;;;8.59;62.34
69796;BME280;57073;45.650;9.612;2023-11-21T06:33:25;98530.19;;;8.67;62.18
69796;BME280;57073;45.650;9.612;2023-11-21T06:38:27;98529.41;;;8.66;62.36
69796;BME280;57073;45.650;9.612;2023-11-21T06:43:30;98527.03;;;8.70;62.44
69796;BME280;57073;45.650;9.612;2023-11-21T06:48:33;98532.41;;;8.70;62.26
69796;BME280;57073;45.650;9.612;2023-11-21T06:53:36;98530.28;;;8.72;62.67
69796;BME280;57073;45.650;9.612;2023-11-21T06:58:36;98528.81;;;8.64;62.89
69796;BME280;57073;45.650;9.612;2023-11-21T07:03:37;98529.63;;;8.65;62.84
69796;BME280;57073;45.650;9.612;2023-11-21T07:08:37;98519.78;;;8.70;62.79
69796;BME280;57073;45.650;9.612;2023-11-21T07:13:38;98514.00;;;8.79;62.75
69796;BME280;57073;45.650;9.612;2023-11-21T07:18:38;98513.34;;;8.72;63.21
69796;BME280;57073;45.650;9.612;2023-11-21T07:23:38;98514.81;;;8.79;62.63
69796;BME280;57073;45.650;9.612;2023-11-21T07:28:39;98513.44;;;8.77;62.87
69796;BME280;57073;45.650;9.612;2023-11-21T07:33:39;98531.13;;;8.89;61.90
69796;BME280;57073;45.650;9.612;2023-11-21T07:38:39;98525.09;;;8.82;62.08
69796;BME280;57073;45.650;9.612;2023-11-21T07:43:40;98516.16;;;8.94;62.01
69796;BME280;57073;45.650;9.612;2023-11-21T07:48:42;98510.25;;;8.80;62.74
69796;BME280;57073;45.650;9.612;2023-11-21T07:53:42;98515.84;;;8.90;62.87
69796;BME280;57073;45.650;9.612;2023-11-21T07:58:43;98524.47;;;8.92;62.46
69796;BME280;57073;45.650;9.612;2023-11-21T08:03:44;98522.31;;;8.77;62.79
69796;BME280;57073;45.650;9.612;2023-11-21T08:08:44;98513.94;;;8.74;62.67
69796;BME280;57073;45.650;9.612;2023-11-21T08:13:45;98512.53;;;8.71;63.13
69796;BME280;57073;45.650;9.612;2023-11-21T08:18:46;98508.78;;;8.72;62.77
69796;BME280;57073;45.650;9.612;2023-11-21T08:23:47;98521.50;;;8.77;62.78
69796;BME280;57073;45.650;9.612;2023-11-21T08:28:53;98513.28;;;8.66;63.20
69796;BME280;57073;45.650;9.612;2023-11-21T08:33:54;98507.97;;;8.72;63.12
69796;BME280;57073;45.650;9.612;2023-11-21T08:38:55;98493.78;;;8.76;62.91
69796;BME280;57073;45.650;9.612;2023-11-21T08:43:56;98503.59;;;8.82;63.38
69796;BME280;57073;45.650;9.612;2023-11-21T08:48:58;98504.03;;;8.91;63.01
69796;BME280;57073;45.650;9.612;2023-11-21T08:53:59;98494.78;;;9.21;61.79
69796;BME280;57073;45.650;9.612;2023-11-21T08:59:04;98492.25;;;9.53;61.62
69796;BME280;57073;45.650;9.612;2023-11-21T09:04:05;98487.31;;;9.67;60.93
69796;BME280;57073;45.650;9.612;2023-11-21T09:09:06;98476.66;;;9.77;60.39
69796;BME280;57073;45.650;9.612;2023-11-21T09:14:06;98492.38;;;9.85;59.99
69796;BME280;57073;45.650;9.612;2023-11-21T09:19:06;98479.63;;;10.03;59.15
69796;BME280;57073;45.650;9.612;2023-11-21T09:24:07;98464.41;;;10.14;59.18
69796;BME280;57073;45.650;9.612;2023-11-21T09:29:09;98466.22;;;10.08;58.76
69796;BME280;57073;45.650;9.612;2023-11-21T09:34:09;98455.75;;;10.12;57.96
69796;BME280;57073;45.650;9.612;2023-11-21T09:39:12;98456.56;;;10.12;58.31
69796;BME280;57073;45.650;9.612;2023-11-21T09:44:18;98470.50;;;10.04;57.84
69796;BME280;57073;45.650;9.612;2023-11-21T09:49:22;98468.25;;;9.96;56.95
69796;BME280;57073;45.650;9.612;2023-11-21T09:54:25;98458.31;;;9.96;56.95
69796;BME280;57073;45.650;9.612;2023-11-21T09:59:30;98447.31;;;10.03;57.47
69796;BME280;57073;45.650;9.612;2023-11-21T10:04:31;98444.69;;;10.08;56.74
69796;BME280;57073;45.650;9.612;2023-11-21T10:09:32;98435.00;;;10.12;56.69
69796;BME280;57073;45.650;9.612;2023-11-21T10:14:34;98431.06;;;10.20;56.06
69796;BME280;57073;45.650;9.612;2023-11-21T10:19:38;98425.94;;;10.18;56.27
69796;BME280;57073;45.650;9.612;2023-11-21T10:24:39;98429.91;;;10.11;56.56
69796;BME280;57073;45.650;9.612;2023-11-21T10:29:40;98409.22;;;10.16;56.00
69796;BME280;57073;45.650;9.612;2023-11-21T10:34:42;98411.38;;;10.19;55.32
69796;BME280;57073;45.650;9.612;2023-11-21T10:39:42;98410.81;;;10.17;55.46
69796;BME280;57073;45.650;9.612;2023-11-21T10:44:45;98404.72;;;10.27;55.70
69796;BME280;57073;45.650;9.612;2023-11-21T10:49:48;98406.75;;;10.42;55.84
69796;BME280;57073;45.650;9.612;2023-11-21T10:54:49;98406.22;;;10.45;56.28
69796;BME280;57073;45.650;9.612;2023-11-21T10:59:49;98403.91;;;10.59;56.39
69796;BME280;57073;45.650;9.612;2023-11-21T11:04:50;98403.50;;;10.72;56.41
69796;BME280;57073;45.650;9.612;2023-11-21T11:09:55;98406.22;;;10.83;56.07
69796;BME280;57073;45.650;9.612;2023-11-21T11:14:56;98409.47;;;10.85;54.93
69796;BME280;57073;45.650;9.612;2023-11-21T11:19:57;98399.81;;;10.89;55.35
69796;BME280;57073;45.650;9.612;2023-11-21T11:41:27;98375.59;;;11.04;54.90
69796;BME280;57073;45.650;9.612;2023-11-21T11:46:43;98377.44;;;10.93;54.73
69796;BME280;57073;45.650;9.612;2023-11-21T11:51:47;98360.22;;;11.05;54.17
69796;BME280;57073;45.650;9.612;2023-11-21T11:56:47;98365.66;;;11.10;54.20
69796;BME280;57073;45.650;9.612;2023-11-21T12:01:49;98368.13;;;11.16;54.94
69796;BME280;57073;45.650;9.612;2023-11-21T12:06:52;98366.25;;;11.22;54.71
69796;BME280;57073;45.650;9.612;2023-11-21T12:11:55;98372.19;;;11.24;55.04
69796;BME280;57073;45.650;9.612;2023-11-21T12:16:59;98369.50;;;11.24;54.71
69796;BME280;57073;45.650;9.612;2023-11-21T12:22:00;98371.16;;;11.30;55.00
69796;BME280;57073;45.650;9.612;2023-11-21T12:27:00;98367.63;;;11.30;53.86
69796;BME280;57073;45.650;9.612;2023-11-21T12:32:01;98364.91;;;11.19;54.71
69796;BME280;57073;45.650;9.612;2023-11-21T12:37:01;98366.28;;;11.32;55.07
69796;BME280;57073;45.650;9.612;2023-11-21T12:42:02;98369.00;;;11.37;55.39
69796;BME280;57073;45.650;9.612;2023-11-21T12:47:03;98366.03;;;11.39;55.64
69796;BME280;57073;45.650;9.612;2023-11-21T12:52:04;98365.38;;;11.11;56.68
69796;BME280;57073;45.650;9.612;2023-11-21T12:57:05;98372.19;;;11.24;56.63
69796;BME280;57073;45.650;9.612;2023-11-21T13:02:08;98363.03;;;11.25;56.76
69796;BME280;57073;45.650;9.612;2023-11-21T13:07:09;98372.72;;;11.16;56.24
69796;BME280;57073;45.650;9.612;2023-11-21T13:12:14;98378.94;;;11.22;56.33
69796;BME280;57073;45.650;9.612;2023-11-21T13:17:18;98374.31;;;11.17;56.59
69796;BME280;57073;45.650;9.612;2023-11-21T13:22:19;98383.06;;;11.40;55.82
69796;BME280;57073;45.650;9.612;2023-11-21T13:27:19;98387.88;;;11.37;55.48
69796;BME280;57073;45.650;9.612;2023-11-21T13:32:20;98392.22;;;11.38;56.96
69796;BME280;57073;45.650;9.612;2023-11-21T13:37:22;98386.84;;;11.44;57.57
69796;BME280;57073;45.650;9.612;2023-11-21T13:42:25;98394.94;;;11.44;57.15
69796;BME280;57073;45.650;9.612;2023-11-21T13:47:28;98401.44;;;11.53;57.13
69796;BME280;57073;45.650;9.612;2023-11-21T13:52:31;98405.75;;;11.49;57.26
69796;BME280;57073;45.650;9.612;2023-11-21T13:57:33;98409.56;;;11.53;57.20
69796;BME280;57073;45.650;9.612;2023-11-21T14:02:34;98420.13;;;11.65;56.73
69796;BME280;57073;45.650;9.612;2023-11-21T14:07:39;98421.44;;;11.57;56.80
69796;BME280;57073;45.650;9.612;2023-11-21T14:12:47;98423.94;;;11.64;56.65
69796;BME280;57073;45.650;9.612;2023-11-21T14:17:48;98425.28;;;11.66;56.81
69796;BME280;57073;45.650;9.612;2023-11-21T14:22:49;98417.19;;;11.71;56.52
69796;BME280;57073;45.650;9.612;2023-11-21T14:27:50;98421.97;;;11.49;54.61
69796;BME280;57073;45.650;9.612;2023-11-21T14:32:52;98426.25;;;11.40;53.69
69796;BME280;57073;45.650;9.612;2023-11-21T14:37:53;98435.59;;;11.22;53.51
69796;BME280;57073;45.650;9.612;2023-11-21T14:42:53;98442.97;;;10.89;52.25
69796;BME280;57073;45.650;9.612;2023-11-21T14:47:57;98449.16;;;10.89;52.25
69796;BME280;57073;45.650;9.612;2023-11-21T14:53:11;98450.84;;;11.00;52.26
69796;BME280;57073;45.650;9.612;2023-11-21T14:58:13;98447.84;;;10.97;51.92
69796;BME280;57073;45.650;9.612;2023-11-21T15:03:17;98458.19;;;11.05;52.81
69796;BME280;57073;45.650;9.612;2023-11-21T15:08:51;98464.31;;;10.95;52.46
69796;BME280;57073;45.650;9.612;2023-11-21T15:13:58;98468.25;;;10.83;53.09
69796;BME280;57073;45.650;9.612;2023-11-21T15:18:58;98480.44;;;10.85;52.64
69796;BME280;57073;45.650;9.612;2023-11-21T15:23:59;98477.91;;;10.73;52.62
69796;BME280;57073;45.650;9.612;2023-11-21T15:28:59;98474.50;;;10.88;52.58
69796;BME280;57073;45.650;9.612;2023-11-21T15:34:00;98481.88;;;10.66;53.03
69796;BME280;57073;45.650;9.612;2023-11-21T15:39:00;98485.00;;;10.85;53.13
69796;BME280;57073;45.650;9.612;2023-11-21T15:44:01;98490.63;;;10.78;53.39
69796;BME280;57073;45.650;9.612;2023-11-21T15:49:01;98493.97;;;10.63;53.86
69796;BME280;57073;45.650;9.612;2023-11-21T15:54:04;98491.56;;;10.61;53.89
69796;BME280;57073;45.650;9.612;2023-11-21T15:59:04;98493.06;;;10.52;55.18
69796;BME280;57073;45.650;9.612;2023-11-21T16:04:05;98496.56;;;10.48;54.80
69796;BME280;57073;45.650;9.612;2023-11-21T16:09:05;98503.09;;;10.30;55.79
69796;BME280;57073;45.650;9.612;2023-11-21T16:14:12;98505.66;;;10.19;56.14
69796;BME280;57073;45.650;9.612;2023-11-21T16:19:13;98514.78;;;10.13;56.55
69796;BME280;57073;45.650;9.612;2023-11-21T16:24:13;98522.09;;;9.96;57.53
69796;BME280;57073;45.650;9.612;2023-11-21T16:29:14;98523.81;;;9.80;57.20
69796;BME280;57073;45.650;9.612;2023-11-21T16:34:17;98534.03;;;10.00;57.39
69796;BME280;57073;45.650;9.612;2023-11-21T16:39:18;98533.97;;;9.73;57.62
69796;BME280;57073;45.650;9.612;2023-11-21T16:44:20;98547.03;;;9.64;58.83
69796;BME280;57073;45.650;9.612;2023-11-21T16:49:21;98545.53;;;9.51;58.58
69796;BME280;57073;45.650;9.612;2023-11-21T16:54:21;98546.25;;;9.46;58.71
69796;BME280;57073;45.650;9.612;2023-11-21T16:59:22;98562.06;;;9.43;59.12
69796;BME280;57073;45.650;9.612;2023-11-21T17:04:22;98569.66;;;9.29;59.53
69796;BME280;57073;45.650;9.612;2023-11-21T17:09:22;98582.56;;;9.27;60.36
69796;BME280;57073;45.650;9.612;2023-11-21T17:14:23;98593.25;;;9.22;60.56
69796;BME280;57073;45.650;9.612;2023-11-21T17:19:23;98594.22;;;9.16;60.78
69796;BME280;57073;45.650;9.612;2023-11-21T17:24:23;98615.75;;;8.99;60.64
69796;BME280;57073;45.650;9.612;2023-11-21T17:29:24;98619.81;;;9.01;60.15
69796;BME280;57073;45.650;9.612;2023-11-21T17:34:24;98619.00;;;9.01;60.72
69796;BME280;57073;45.650;9.612;2023-11-21T17:39:25;98627.31;;;8.99;60.26
69796;BME280;57073;45.650;9.612;2023-11-21T17:44:25;98616.53;;;8.99;60.53
69796;BME280;57073;45.650;9.612;2023-11-21T17:49:26;98629.38;;;8.80;61.12
69796;BME280;57073;45.650;9.612;2023-11-21T17:54:26;98623.16;;;8.80;60.63
69796;BME280;57073;45.650;9.612;2023-11-21T17:59:26;98631.28;;;8.68;61.15
69796;BME280;57073;45.650;9.612;2023-11-21T18:04:27;98636.22;;;8.59;61.19
69796;BME280;57073;45.650;9.612;2023-11-21T18:09:27;98631.91;;;8.58;61.53
69796;BME280;57073;45.650;9.612;2023-11-21T18:14:28;98633.44;;;8.54;61.31
69796;BME280;57073;45.650;9.612;2023-11-21T18:19:29;98644.31;;;8.47;62.06
69796;BME280;57073;45.650;9.612;2023-11-21T18:24:31;98647.16;;;8.41;62.09
69796;BME280;57073;45.650;9.612;2023-11-21T18:29:32;98652.91;;;8.32;62.22
69796;BME280;57073;45.650;9.612;2023-11-21T18:34:33;98649.50;;;8.37;61.55
69796;BME280;57073;45.650;9.612;2023-11-21T18:39:33;98650.09;;;8.39;61.81
69796;BME280;57073;45.650;9.612;2023-11-21T18:44:34;98656.03;;;8.41;61.22
69796;BME280;57073;45.650;9.612;2023-11-21T18:49:35;98655.13;;;8.24;61.83
69796;BME280;57073;45.650;9.612;2023-11-21T18:54:36;98658.53;;;8.19;61.82
69796;BME280;57073;45.650;9.612;2023-11-21T18:59:37;98658.31;;;8.21;61.02
69796;BME280;57073;45.650;9.612;2023-11-21T19:04:38;98650.03;;;8.22;60.75
69796;BME280;57073;45.650;9.612;2023-11-21T19:09:39;98648.72;;;8.13;61.38
69796;BME280;57073;45.650;9.612;2023-11-21T19:14:39;98648.16;;;8.11;61.32
69796;BME280;57073;45.650;9.612;2023-11-21T19:19:40;98644.53;;;8.17;61.03
69796;BME280;57073;45.650;9.612;2023-11-21T19:24:40;98647.22;;;8.17;61.39
69796;BME280;57073;45.650;9.612;2023-11-21T19:29:40;98645.00;;;8.26;60.89
69796;BME280;57073;45.650;9.612;2023-11-21T19:34:41;98653.75;;;8.21;61.04
69796;BME280;57073;45.650;9.612;2023-11-21T19:39:41;98655.00;;;8.30;60.26
69796;BME280;57073;45.650;9.612;2023-11-21T19:44:42;98664.13;;;8.29;60.26
69796;BME280;57073;45.650;9.612;2023-11-21T19:49:43;98671.16;;;8.19;60.33
69796;BME280;57073;45.650;9.612;2023-11-21T19:54:44;98671.75;;;8.21;60.39
69796;BME280;57073;45.650;9.612;2023-11-21T19:59:45;98683.53;;;8.20;60.14
69796;BME280;57073;45.650;9.612;2023-11-21T20:04:46;98696.25;;;8.12;60.37
69796;BME280;57073;45.650;9.612;2023-11-21T20:09:46;98701.16;;;8.16;59.90
69796;BME280;57073;45.650;9.612;2023-11-21T20:14:49;98706.78;;;8.14;59.93
69796;BME280;57073;45.650;9.612;2023-11-21T20:19:50;98710.03;;;8.16;59.64
69796;BME280;57073;45.650;9.612;2023-11-21T20:24:51;98722.44;;;7.93;60.42
69796;BME280;57073;45.650;9.612;2023-11-21T20:29:51;98732.56;;;7.80;60.02
69796;BME280;57073;45.650;9.612;2023-11-21T20:34:52;98742.34;;;7.62;61.11
69796;BME280;57073;45.650;9.612;2023-11-21T20:39:53;98737.28;;;7.42;61.52
69796;BME280;57073;45.650;9.612;2023-11-21T20:44:54;98748.00;;;7.42;61.35
69796;BME280;57073;45.650;9.612;2023-11-21T20:49:55;98743.38;;;7.19;62.11
69796;BME280;57073;45.650;9.612;2023-11-21T20:54:58;98747.66;;;7.08;62.95
69796;BME280;57073;45.650;9.612;2023-11-21T20:59:58;98748.84;;;7.12;63.12
69796;BME280;57073;45.650;9.612;2023-11-21T21:04:59;98759.28;;;7.02;62.66
69796;BME280;57073;45.650;9.612;2023-11-21T21:09:59;98779.47;;;7.05;62.86
69796;BME280;57073;45.650;9.612;2023-11-21T21:15:00;98775.94;;;7.04;63.08
69796;BME280;57073;45.650;9.612;2023-11-21T21:20:00;98781.31;;;7.04;63.03
69796;BME280;57073;45.650;9.612;2023-11-21T21:25:01;98782.22;;;6.98;62.91
69796;BME280;57073;45.650;9.612;2023-11-21T21:30:01;98792.34;;;6.96;62.89
69796;BME280;57073;45.650;9.612;2023-11-21T21:35:04;98793.09;;;7.03;62.74
69796;BME280;57073;45.650;9.612;2023-11-21T21:40:05;98796.13;;;7.07;62.43
69796;BME280;57073;45.650;9.612;2023-11-21T21:45:08;98800.81;;;7.11;62.37
69796;BME280;57073;45.650;9.612;2023-11-21T21:50:09;98794.84;;;7.09;62.24
69796;BME280;57073;45.650;9.612;2023-11-21T21:55:10;98799.47;;;7.21;62.27
69796;BME280;57073;45.650;9.612;2023-11-21T22:00:12;98802.31;;;7.07;62.20
69796;BME280;57073;45.650;9.612;2023-11-21T22:05:16;98806.50;;;7.03;62.59
69796;BME280;57073;45.650;9.612;2023-11-21T22:10:17;98802.03;;;6.97;62.30
69796;BME280;57073;45.650;9.612;2023-11-21T22:15:17;98797.13;;;6.94;62.64
69796;BME280;57073;45.650;9.612;2023-11-21T22:20:17;98796.38;;;7.05;62.53
69796;BME280;57073;45.650;9.612;2023-11-21T22:25:20;98796.00;;;7.02;62.71
69796;BME280;57073;45.650;9.612;2023-11-21T22:30:20;98793.31;;;7.02;62.71
69796;BME280;57073;45.650;9.612;2023-11-21T22:35:21;98809.31;;;7.08;63.30
69796;BME280;57073;45.650;9.612;2023-11-21T22:40:22;98807.91;;;7.06;63.06
69796;BME280;57073;45.650;9.612;2023-11-21T22:45:23;98797.09;;;7.12;62.06
69796;BME280;57073;45.650;9.612;2023-11-21T22:50:23;98802.38;;;7.01;62.17
69796;BME280;57073;45.650;9.612;2023-11-21T22:55:24;98795.63;;;6.98;62.58
69796;BME280;57073;45.650;9.612;2023-11-21T23:00:24;98802.84;;;6.97;62.68
69796;BME280;57073;45.650;9.612;2023-11-21T23:05:29;98795.63;;;6.98;62.41
69796;BME280;57073;45.650;9.612;2023-11-21T23:10:30;98790.84;;;7.00;61.75
69796;BME280;57073;45.650;9.612;2023-11-21T23:15:31;98795.25;;;6.94;62.05
69796;BME280;57073;45.650;9.612;2023-11-21T23:20:31;98795.81;;;6.85;62.30
69796;BME280;57073;45.650;9.612;2023-11-21T23:25:31;98796.03;;;6.83;62.18
69796;BME280;57073;45.650;9.612;2023-11-21T23:30:32;98795.44;;;6.81;61.65
69796;BME280;57073;45.650;9.612;2023-11-21T23:35:32;98801.16;;;6.85;62.12
69796;BME280;57073;45.650;9.612;2023-11-21T23:40:33;98799.50;;;6.84;61.67
69796;BME280;57073;45.650;9.612;2023-11-21T23:45:33;98780.97;;;6.82;61.45
69796;BME280;57073;45.650;9.612;2023-11-21T23:50:34;98773.63;;;6.77;61.76
69796;BME280;57073;45.650;9.612;2023-11-21T23:55:35;98770.78;;;6.72;61.85
